sensor_id;sensor_type;location;lat;lon;timestamp;P1;durP1;ratioP1;P2;durP2;ratioP2
75441;SDS011;64019;48.312;14.226;2023-08-01T00:00:33;4.97;;;2.50;;
75441;SDS011;64019;48.312;14.226;2023-08-01T00:02:59;4.70;;;2.13;;
75441;SDS011;64019;48.312;14.226;2023-08-01T00:05:25;3.30;;;2.40;;
75441;SDS011;64019;48.312;14.226;2023-08-01T00:07:51;3.60;;;2.50;;
75441;SDS011;64019;48.312;14.226;2023-08-01T00:10:17;4.10;;;2.30;;
75441;SDS011;64019;48.312;14.226;2023-08-01T00:12:43;4.93;;;2.30;;
75441;SDS011;64019;48.312;14.226;2023-08-01T00:15:08;4.10;;;2.27;;
75441;SDS011;64019;48.312;14.226;2023-08-01T00:17:34;9.67;;;2.87;;
75441;SDS011;64019;48.312;14.226;2023-08-01T00:20:01;3.83;;;2.60;;
75441;SDS011;64019;48.312;14.226;2023-08-01T00:22:27;4.97;;;2.53;;
75441;SDS011;64019;48.312;14.226;2023-08-01T00:24:53;6.37;;;2.63;;
75441;SDS011;64019;48.312;14.226;2023-08-01T00:27:19;5.20;;;3.20;;
75441;SDS011;64019;48.312;14.226;2023-08-01T00:29:45;3.90;;;2.57;;
75441;SDS011;64019;48.312;14.226;2023-08-01T00:32:11;4.47;;;2.70;;
75441;SDS011;64019;48.312;14.226;2023-08-01T00:34:36;3.97;;;2.27;;
75441;SDS011;64019;48.312;14.226;2023-08-01T00:37:02;10.10;;;3.13;;
75441;SDS011;64019;48.312;14.226;2023-08-01T00:39:28;3.80;;;2.77;;
75441;SDS011;64019;48.312;14.226;2023-08-01T00:41:54;5.13;;;3.20;;
75441;SDS011;64019;48.312;14.226;2023-08-01T00:44:20;7.50;;;3.13;;
75441;SDS011;64019;48.312;14.226;2023-08-01T00:46:45;4.70;;;3.10;;
75441;SDS011;64019;48.312;14.226;2023-08-01T00:49:11;9.17;;;3.50;;
75441;SDS011;64019;48.312;14.226;2023-08-01T00:51:38;4.03;;;2.63;;
75441;SDS011;64019;48.312;14.226;2023-08-01T00:54:03;4.97;;;2.87;;
75441;SDS011;64019;48.312;14.226;2023-08-01T00:56:29;3.60;;;2.37;;
75441;SDS011;64019;48.312;14.226;2023-08-01T00:58:55;3.87;;;3.00;;
75441;SDS011;64019;48.312;14.226;2023-08-01T01:01:20;4.50;;;2.87;;
75441;SDS011;64019;48.312;14.226;2023-08-01T01:03:46;5.70;;;2.67;;
75441;SDS011;64019;48.312;14.226;2023-08-01T01:08:49;4.53;;;2.77;;
75441;SDS011;64019;48.312;14.226;2023-08-01T01:11:15;3.43;;;2.30;;
75441;SDS011;64019;48.312;14.226;2023-08-01T01:13:41;4.20;;;3.00;;
75441;SDS011;64019;48.312;14.226;2023-08-01T01:16:08;3.90;;;2.73;;
75441;SDS011;64019;48.312;14.226;2023-08-01T01:18:34;7.53;;;3.00;;
75441;SDS011;64019;48.312;14.226;2023-08-01T01:20:59;9.63;;;2.83;;
75441;SDS011;64019;48.312;14.226;2023-08-01T01:23:25;8.70;;;3.20;;
75441;SDS011;64019;48.312;14.226;2023-08-01T01:25:52;4.90;;;2.73;;
75441;SDS011;64019;48.312;14.226;2023-08-01T01:28:19;6.27;;;2.87;;
75441;SDS011;64019;48.312;14.226;2023-08-01T01:30:45;4.33;;;2.67;;
75441;SDS011;64019;48.312;14.226;2023-08-01T01:33:13;4.20;;;2.50;;
75441;SDS011;64019;48.312;14.226;2023-08-01T01:35:41;5.27;;;2.73;;
75441;SDS011;64019;48.312;14.226;2023-08-01T01:38:06;6.97;;;3.10;;
75441;SDS011;64019;48.312;14.226;2023-08-01T01:40:33;4.70;;;2.97;;
75441;SDS011;64019;48.312;14.226;2023-08-01T01:42:59;7.33;;;2.77;;
75441;SDS011;64019;48.312;14.226;2023-08-01T01:45:25;5.87;;;3.00;;
75441;SDS011;64019;48.312;14.226;2023-08-01T01:47:52;4.30;;;3.03;;
75441;SDS011;64019;48.312;14.226;2023-08-01T01:50:17;3.80;;;2.90;;
75441;SDS011;64019;48.312;14.226;2023-08-01T01:52:43;5.53;;;3.10;;
75441;SDS011;64019;48.312;14.226;2023-08-01T01:55:09;4.93;;;2.77;;
75441;SDS011;64019;48.312;14.226;2023-08-01T01:57:35;6.00;;;2.80;;
75441;SDS011;64019;48.312;14.226;2023-08-01T02:00:04;3.97;;;2.97;;
75441;SDS011;64019;48.312;14.226;2023-08-01T02:02:31;5.43;;;2.60;;
75441;SDS011;64019;48.312;14.226;2023-08-01T02:04:56;10.30;;;3.10;;
75441;SDS011;64019;48.312;14.226;2023-08-01T02:07:22;5.57;;;3.20;;
75441;SDS011;64019;48.312;14.226;2023-08-01T02:09:48;3.73;;;2.70;;
75441;SDS011;64019;48.312;14.226;2023-08-01T02:12:13;7.17;;;3.33;;
75441;SDS011;64019;48.312;14.226;2023-08-01T02:14:39;5.93;;;3.27;;
75441;SDS011;64019;48.312;14.226;2023-08-01T02:17:06;5.37;;;3.40;;
75441;SDS011;64019;48.312;14.226;2023-08-01T02:19:32;4.03;;;2.67;;
75441;SDS011;64019;48.312;14.226;2023-08-01T02:21:58;10.37;;;3.50;;
75441;SDS011;64019;48.312;14.226;2023-08-01T02:24:23;6.37;;;3.20;;
75441;SDS011;64019;48.312;14.226;2023-08-01T02:26:49;6.77;;;2.93;;
75441;SDS011;64019;48.312;14.226;2023-08-01T02:29:15;3.70;;;2.63;;
75441;SDS011;64019;48.312;14.226;2023-08-01T02:31:41;8.93;;;3.17;;
75441;SDS011;64019;48.312;14.226;2023-08-01T02:34:07;7.10;;;3.37;;
75441;SDS011;64019;48.312;14.226;2023-08-01T02:36:33;4.40;;;2.93;;
75441;SDS011;64019;48.312;14.226;2023-08-01T02:38:58;4.50;;;2.87;;
75441;SDS011;64019;48.312;14.226;2023-08-01T02:41:24;5.27;;;3.37;;
75441;SDS011;64019;48.312;14.226;2023-08-01T02:43:49;5.23;;;3.17;;
75441;SDS011;64019;48.312;14.226;2023-08-01T02:46:15;5.53;;;3.37;;
75441;SDS011;64019;48.312;14.226;2023-08-01T02:48:41;6.43;;;3.40;;
75441;SDS011;64019;48.312;14.226;2023-08-01T02:51:06;5.00;;;3.00;;
75441;SDS011;64019;48.312;14.226;2023-08-01T02:53:34;4.50;;;2.80;;
75441;SDS011;64019;48.312;14.226;2023-08-01T02:56:00;4.83;;;3.40;;
75441;SDS011;64019;48.312;14.226;2023-08-01T02:58:26;5.20;;;3.17;;
75441;SDS011;64019;48.312;14.226;2023-08-01T03:00:51;9.33;;;3.17;;
75441;SDS011;64019;48.312;14.226;2023-08-01T03:03:17;7.00;;;3.23;;
75441;SDS011;64019;48.312;14.226;2023-08-01T03:05:42;6.57;;;3.30;;
75441;SDS011;64019;48.312;14.226;2023-08-01T03:08:08;4.53;;;3.10;;
75441;SDS011;64019;48.312;14.226;2023-08-01T03:10:34;5.67;;;3.63;;
75441;SDS011;64019;48.312;14.226;2023-08-01T03:12:59;5.10;;;3.27;;
75441;SDS011;64019;48.312;14.226;2023-08-01T03:15:26;4.27;;;3.23;;
75441;SDS011;64019;48.312;14.226;2023-08-01T03:17:52;5.73;;;3.30;;
75441;SDS011;64019;48.312;14.226;2023-08-01T03:20:17;7.33;;;3.90;;
75441;SDS011;64019;48.312;14.226;2023-08-01T03:22:43;5.03;;;3.50;;
75441;SDS011;64019;48.312;14.226;2023-08-01T03:25:09;7.07;;;3.67;;
75441;SDS011;64019;48.312;14.226;2023-08-01T03:27:35;5.50;;;3.77;;
75441;SDS011;64019;48.312;14.226;2023-08-01T03:30:01;4.30;;;3.40;;
75441;SDS011;64019;48.312;14.226;2023-08-01T03:32:28;7.37;;;3.00;;
75441;SDS011;64019;48.312;14.226;2023-08-01T03:34:54;7.67;;;3.57;;
75441;SDS011;64019;48.312;14.226;2023-08-01T03:37:20;6.13;;;3.20;;
75441;SDS011;64019;48.312;14.226;2023-08-01T03:39:46;5.70;;;3.10;;
75441;SDS011;64019;48.312;14.226;2023-08-01T03:42:11;8.77;;;3.20;;
75441;SDS011;64019;48.312;14.226;2023-08-01T03:44:37;5.37;;;3.53;;
75441;SDS011;64019;48.312;14.226;2023-08-01T03:47:03;5.60;;;3.30;;
75441;SDS011;64019;48.312;14.226;2023-08-01T03:49:28;5.90;;;3.73;;
75441;SDS011;64019;48.312;14.226;2023-08-01T03:51:54;6.27;;;3.73;;
75441;SDS011;64019;48.312;14.226;2023-08-01T03:54:20;6.83;;;4.23;;
75441;SDS011;64019;48.312;14.226;2023-08-01T03:56:45;7.57;;;3.57;;
75441;SDS011;64019;48.312;14.226;2023-08-01T03:59:11;4.43;;;3.30;;
75441;SDS011;64019;48.312;14.226;2023-08-01T04:01:38;9.80;;;4.07;;
75441;SDS011;64019;48.312;14.226;2023-08-01T04:04:04;4.83;;;3.80;;
75441;SDS011;64019;48.312;14.226;2023-08-01T04:13:17;4.37;;;2.93;;
75441;SDS011;64019;48.312;14.226;2023-08-01T04:15:43;7.60;;;4.00;;
75441;SDS011;64019;48.312;14.226;2023-08-01T04:18:09;7.47;;;4.00;;
75441;SDS011;64019;48.312;14.226;2023-08-01T04:20:34;6.47;;;3.67;;
75441;SDS011;64019;48.312;14.226;2023-08-01T04:23:00;6.43;;;4.00;;
75441;SDS011;64019;48.312;14.226;2023-08-01T04:25:25;4.93;;;3.73;;
75441;SDS011;64019;48.312;14.226;2023-08-01T04:27:52;6.53;;;4.17;;
75441;SDS011;64019;48.312;14.226;2023-08-01T04:30:18;5.10;;;3.30;;
75441;SDS011;64019;48.312;14.226;2023-08-01T04:32:44;6.30;;;3.70;;
75441;SDS011;64019;48.312;14.226;2023-08-01T04:35:09;4.93;;;3.30;;
75441;SDS011;64019;48.312;14.226;2023-08-01T04:37:35;5.47;;;3.70;;
75441;SDS011;64019;48.312;14.226;2023-08-01T04:40:00;7.43;;;4.10;;
75441;SDS011;64019;48.312;14.226;2023-08-01T04:42:27;6.63;;;3.80;;
75441;SDS011;64019;48.312;14.226;2023-08-01T04:44:53;6.63;;;4.20;;
75441;SDS011;64019;48.312;14.226;2023-08-01T04:47:20;4.43;;;3.67;;
75441;SDS011;64019;48.312;14.226;2023-08-01T04:49:46;8.93;;;3.27;;
75441;SDS011;64019;48.312;14.226;2023-08-01T04:52:12;4.77;;;3.80;;
75441;SDS011;64019;48.312;14.226;2023-08-01T04:54:37;8.93;;;4.20;;
75441;SDS011;64019;48.312;14.226;2023-08-01T04:57:03;7.67;;;3.80;;
75441;SDS011;64019;48.312;14.226;2023-08-01T04:59:29;10.57;;;4.07;;
75441;SDS011;64019;48.312;14.226;2023-08-01T05:01:55;7.90;;;3.73;;
75441;SDS011;64019;48.312;14.226;2023-08-01T05:04:20;7.77;;;3.80;;
75441;SDS011;64019;48.312;14.226;2023-08-01T05:06:46;5.37;;;3.77;;
75441;SDS011;64019;48.312;14.226;2023-08-01T05:09:12;5.93;;;3.60;;
75441;SDS011;64019;48.312;14.226;2023-08-01T05:11:37;5.47;;;3.77;;
75441;SDS011;64019;48.312;14.226;2023-08-01T05:14:03;4.87;;;3.77;;
75441;SDS011;64019;48.312;14.226;2023-08-01T05:16:29;4.53;;;3.43;;
75441;SDS011;64019;48.312;14.226;2023-08-01T05:18:54;8.63;;;4.03;;
75441;SDS011;64019;48.312;14.226;2023-08-01T05:21:20;6.97;;;3.80;;
75441;SDS011;64019;48.312;14.226;2023-08-01T05:23:45;6.90;;;4.33;;
75441;SDS011;64019;48.312;14.226;2023-08-01T05:26:11;5.60;;;3.83;;
75441;SDS011;64019;48.312;14.226;2023-08-01T05:28:37;9.10;;;4.20;;
75441;SDS011;64019;48.312;14.226;2023-08-01T05:31:03;6.77;;;3.83;;
75441;SDS011;64019;48.312;14.226;2023-08-01T05:33:28;6.60;;;3.53;;
75441;SDS011;64019;48.312;14.226;2023-08-01T05:35:54;5.93;;;3.90;;
75441;SDS011;64019;48.312;14.226;2023-08-01T05:38:20;6.87;;;4.03;;
75441;SDS011;64019;48.312;14.226;2023-08-01T05:40:45;10.73;;;4.23;;
75441;SDS011;64019;48.312;14.226;2023-08-01T05:43:11;11.57;;;4.20;;
75441;SDS011;64019;48.312;14.226;2023-08-01T05:45:36;8.17;;;3.73;;
75441;SDS011;64019;48.312;14.226;2023-08-01T05:48:02;9.20;;;4.00;;
75441;SDS011;64019;48.312;14.226;2023-08-01T05:50:28;8.17;;;3.30;;
75441;SDS011;64019;48.312;14.226;2023-08-01T05:52:54;8.70;;;4.47;;
75441;SDS011;64019;48.312;14.226;2023-08-01T05:55:20;7.33;;;3.77;;
75441;SDS011;64019;48.312;14.226;2023-08-01T05:57:46;5.80;;;3.90;;
75441;SDS011;64019;48.312;14.226;2023-08-01T06:00:14;9.70;;;4.23;;
75441;SDS011;64019;48.312;14.226;2023-08-01T06:02:40;6.37;;;4.37;;
75441;SDS011;64019;48.312;14.226;2023-08-01T06:05:05;9.37;;;4.23;;
75441;SDS011;64019;48.312;14.226;2023-08-01T06:07:31;8.07;;;4.40;;
75441;SDS011;64019;48.312;14.226;2023-08-01T06:09:57;10.33;;;4.50;;
75441;SDS011;64019;48.312;14.226;2023-08-01T06:12:22;8.83;;;4.40;;
75441;SDS011;64019;48.312;14.226;2023-08-01T06:14:48;8.70;;;4.00;;
75441;SDS011;64019;48.312;14.226;2023-08-01T06:17:14;8.10;;;4.27;;
75441;SDS011;64019;48.312;14.226;2023-08-01T06:19:40;9.30;;;4.17;;
75441;SDS011;64019;48.312;14.226;2023-08-01T06:22:06;7.73;;;4.83;;
75441;SDS011;64019;48.312;14.226;2023-08-01T06:24:32;9.97;;;4.53;;
75441;SDS011;64019;48.312;14.226;2023-08-01T06:26:57;6.80;;;4.47;;
75441;SDS011;64019;48.312;14.226;2023-08-01T06:29:23;9.60;;;4.70;;
75441;SDS011;64019;48.312;14.226;2023-08-01T06:31:50;7.47;;;5.00;;
75441;SDS011;64019;48.312;14.226;2023-08-01T06:34:15;9.23;;;4.37;;
75441;SDS011;64019;48.312;14.226;2023-08-01T06:36:41;9.53;;;4.67;;
75441;SDS011;64019;48.312;14.226;2023-08-01T06:39:07;8.53;;;4.90;;
75441;SDS011;64019;48.312;14.226;2023-08-01T06:41:33;8.20;;;4.57;;
75441;SDS011;64019;48.312;14.226;2023-08-01T06:43:58;9.90;;;5.10;;
75441;SDS011;64019;48.312;14.226;2023-08-01T06:46:24;7.57;;;4.73;;
75441;SDS011;64019;48.312;14.226;2023-08-01T06:48:50;15.23;;;5.47;;
75441;SDS011;64019;48.312;14.226;2023-08-01T06:51:15;9.10;;;5.07;;
75441;SDS011;64019;48.312;14.226;2023-08-01T06:53:41;8.77;;;5.13;;
75441;SDS011;64019;48.312;14.226;2023-08-01T06:56:07;10.40;;;5.20;;
75441;SDS011;64019;48.312;14.226;2023-08-01T06:58:33;8.30;;;5.10;;
75441;SDS011;64019;48.312;14.226;2023-08-01T07:00:58;10.93;;;4.90;;
75441;SDS011;64019;48.312;14.226;2023-08-01T07:03:24;9.10;;;4.60;;
75441;SDS011;64019;48.312;14.226;2023-08-01T07:05:50;9.77;;;5.33;;
75441;SDS011;64019;48.312;14.226;2023-08-01T07:08:15;12.00;;;5.43;;
75441;SDS011;64019;48.312;14.226;2023-08-01T07:10:41;14.63;;;5.43;;
75441;SDS011;64019;48.312;14.226;2023-08-01T07:13:07;12.83;;;5.63;;
75441;SDS011;64019;48.312;14.226;2023-08-01T07:15:33;10.97;;;5.27;;
75441;SDS011;64019;48.312;14.226;2023-08-01T07:17:58;9.93;;;4.20;;
75441;SDS011;64019;48.312;14.226;2023-08-01T07:20:24;7.67;;;4.37;;
75441;SDS011;64019;48.312;14.226;2023-08-01T07:22:50;7.23;;;4.60;;
75441;SDS011;64019;48.312;14.226;2023-08-01T07:25:16;10.23;;;5.20;;
75441;SDS011;64019;48.312;14.226;2023-08-01T07:27:42;8.70;;;4.70;;
75441;SDS011;64019;48.312;14.226;2023-08-01T07:30:08;6.97;;;4.77;;
75441;SDS011;64019;48.312;14.226;2023-08-01T07:32:35;12.13;;;4.67;;
75441;SDS011;64019;48.312;14.226;2023-08-01T07:35:02;10.03;;;4.87;;
75441;SDS011;64019;48.312;14.226;2023-08-01T07:37:29;10.20;;;5.20;;
75441;SDS011;64019;48.312;14.226;2023-08-01T07:39:55;10.50;;;5.30;;
75441;SDS011;64019;48.312;14.226;2023-08-01T07:42:21;8.07;;;4.67;;
75441;SDS011;64019;48.312;14.226;2023-08-01T07:44:47;6.43;;;4.80;;
75441;SDS011;64019;48.312;14.226;2023-08-01T07:47:13;7.30;;;4.60;;
75441;SDS011;64019;48.312;14.226;2023-08-01T07:49:39;10.80;;;4.60;;
75441;SDS011;64019;48.312;14.226;2023-08-01T07:52:04;7.27;;;4.27;;
75441;SDS011;64019;48.312;14.226;2023-08-01T07:54:30;9.47;;;4.47;;
75441;SDS011;64019;48.312;14.226;2023-08-01T07:56:56;8.23;;;3.63;;
75441;SDS011;64019;48.312;14.226;2023-08-01T07:59:21;6.93;;;3.23;;
75441;SDS011;64019;48.312;14.226;2023-08-01T08:01:47;5.60;;;3.07;;
75441;SDS011;64019;48.312;14.226;2023-08-01T08:04:13;7.03;;;3.80;;
75441;SDS011;64019;48.312;14.226;2023-08-01T08:06:39;4.10;;;2.90;;
75441;SDS011;64019;48.312;14.226;2023-08-01T08:09:05;13.30;;;3.77;;
75441;SDS011;64019;48.312;14.226;2023-08-01T08:11:31;6.80;;;3.50;;
75441;SDS011;64019;48.312;14.226;2023-08-01T08:13:58;5.37;;;2.70;;
75441;SDS011;64019;48.312;14.226;2023-08-01T08:16:24;8.97;;;3.30;;
75441;SDS011;64019;48.312;14.226;2023-08-01T08:18:50;5.30;;;3.03;;
75441;SDS011;64019;48.312;14.226;2023-08-01T08:21:16;7.17;;;3.27;;
75441;SDS011;64019;48.312;14.226;2023-08-01T08:23:41;5.27;;;3.10;;
75441;SDS011;64019;48.312;14.226;2023-08-01T08:26:07;8.03;;;3.30;;
75441;SDS011;64019;48.312;14.226;2023-08-01T08:28:33;4.30;;;3.07;;
75441;SDS011;64019;48.312;14.226;2023-08-01T08:30:59;6.97;;;3.60;;
75441;SDS011;64019;48.312;14.226;2023-08-01T08:33:26;7.60;;;3.57;;
75441;SDS011;64019;48.312;14.226;2023-08-01T08:35:52;5.97;;;3.30;;
75441;SDS011;64019;48.312;14.226;2023-08-01T08:38:18;9.87;;;3.30;;
75441;SDS011;64019;48.312;14.226;2023-08-01T08:40:56;4.50;;;2.90;;
75441;SDS011;64019;48.312;14.226;2023-08-01T08:43:25;6.63;;;3.40;;
75441;SDS011;64019;48.312;14.226;2023-08-01T08:45:52;6.53;;;4.03;;
75441;SDS011;64019;48.312;14.226;2023-08-01T08:48:21;8.17;;;3.70;;
75441;SDS011;64019;48.312;14.226;2023-08-01T08:50:47;8.33;;;3.53;;
75441;SDS011;64019;48.312;14.226;2023-08-01T08:53:14;7.90;;;3.60;;
75441;SDS011;64019;48.312;14.226;2023-08-01T08:55:41;10.80;;;4.00;;
75441;SDS011;64019;48.312;14.226;2023-08-01T08:58:07;7.77;;;4.33;;
75441;SDS011;64019;48.312;14.226;2023-08-01T09:00:35;7.50;;;4.40;;
75441;SDS011;64019;48.312;14.226;2023-08-01T09:03:02;8.37;;;3.47;;
75441;SDS011;64019;48.312;14.226;2023-08-01T09:05:31;6.17;;;3.23;;
75441;SDS011;64019;48.312;14.226;2023-08-01T09:08:24;9.07;;;3.10;;
75441;SDS011;64019;48.312;14.226;2023-08-01T09:10:54;7.03;;;3.63;;
75441;SDS011;64019;48.312;14.226;2023-08-01T09:13:19;7.23;;;3.77;;
75441;SDS011;64019;48.312;14.226;2023-08-01T09:15:45;6.53;;;3.70;;
75441;SDS011;64019;48.312;14.226;2023-08-01T09:18:12;7.00;;;3.80;;
75441;SDS011;64019;48.312;14.226;2023-08-01T09:20:42;7.10;;;3.60;;
75441;SDS011;64019;48.312;14.226;2023-08-01T09:23:09;5.80;;;3.47;;
75441;SDS011;64019;48.312;14.226;2023-08-01T09:25:36;6.43;;;3.27;;
75441;SDS011;64019;48.312;14.226;2023-08-01T09:35:08;8.57;;;3.40;;
75441;SDS011;64019;48.312;14.226;2023-08-01T09:37:49;7.87;;;3.27;;
75441;SDS011;64019;48.312;14.226;2023-08-01T09:40:16;6.27;;;3.77;;
75441;SDS011;64019;48.312;14.226;2023-08-01T09:59:26;6.87;;;3.37;;
75441;SDS011;64019;48.312;14.226;2023-08-01T10:02:16;8.13;;;3.80;;
75441;SDS011;64019;48.312;14.226;2023-08-01T10:04:49;7.13;;;3.63;;
75441;SDS011;64019;48.312;14.226;2023-08-01T10:07:17;9.27;;;3.80;;
75441;SDS011;64019;48.312;14.226;2023-08-01T10:09:48;5.50;;;3.50;;
75441;SDS011;64019;48.312;14.226;2023-08-01T10:12:14;10.70;;;3.80;;
75441;SDS011;64019;48.312;14.226;2023-08-01T10:14:43;11.33;;;3.53;;
75441;SDS011;64019;48.312;14.226;2023-08-01T10:17:10;7.57;;;3.20;;
75441;SDS011;64019;48.312;14.226;2023-08-01T10:19:36;6.40;;;3.33;;
75441;SDS011;64019;48.312;14.226;2023-08-01T10:22:03;6.27;;;2.90;;
75441;SDS011;64019;48.312;14.226;2023-08-01T10:24:31;6.90;;;3.03;;
75441;SDS011;64019;48.312;14.226;2023-08-01T10:26:57;5.93;;;3.00;;
75441;SDS011;64019;48.312;14.226;2023-08-01T10:29:36;6.67;;;3.57;;
75441;SDS011;64019;48.312;14.226;2023-08-01T10:32:02;5.17;;;2.67;;
75441;SDS011;64019;48.312;14.226;2023-08-01T10:34:28;6.97;;;2.90;;
75441;SDS011;64019;48.312;14.226;2023-08-01T10:36:56;6.30;;;3.63;;
75441;SDS011;64019;48.312;14.226;2023-08-01T10:39:23;5.40;;;3.00;;
75441;SDS011;64019;48.312;14.226;2023-08-01T10:42:00;9.83;;;3.30;;
75441;SDS011;64019;48.312;14.226;2023-08-01T10:44:27;6.27;;;3.20;;
75441;SDS011;64019;48.312;14.226;2023-08-01T10:46:56;10.10;;;3.73;;
75441;SDS011;64019;48.312;14.226;2023-08-01T10:49:41;4.87;;;3.20;;
75441;SDS011;64019;48.312;14.226;2023-08-01T10:52:17;5.37;;;2.97;;
75441;SDS011;64019;48.312;14.226;2023-08-01T10:54:44;6.27;;;3.30;;
75441;SDS011;64019;48.312;14.226;2023-08-01T10:57:17;11.53;;;3.70;;
75441;SDS011;64019;48.312;14.226;2023-08-01T10:59:43;10.87;;;4.40;;
75441;SDS011;64019;48.312;14.226;2023-08-01T11:11:41;8.77;;;4.07;;
75441;SDS011;64019;48.312;14.226;2023-08-01T11:17:40;7.03;;;3.67;;
75441;SDS011;64019;48.312;14.226;2023-08-01T11:24:07;8.90;;;4.00;;
75441;SDS011;64019;48.312;14.226;2023-08-01T11:26:33;7.33;;;3.77;;
75441;SDS011;64019;48.312;14.226;2023-08-01T11:29:02;6.37;;;3.63;;
75441;SDS011;64019;48.312;14.226;2023-08-01T11:31:29;6.87;;;3.70;;
75441;SDS011;64019;48.312;14.226;2023-08-01T11:33:56;4.00;;;2.60;;
75441;SDS011;64019;48.312;14.226;2023-08-01T11:36:26;7.73;;;3.70;;
75441;SDS011;64019;48.312;14.226;2023-08-01T11:38:52;9.77;;;3.90;;
75441;SDS011;64019;48.312;14.226;2023-08-01T11:41:20;6.40;;;3.97;;
75441;SDS011;64019;48.312;14.226;2023-08-01T11:43:45;5.90;;;3.10;;
75441;SDS011;64019;48.312;14.226;2023-08-01T11:46:12;7.13;;;4.10;;
75441;SDS011;64019;48.312;14.226;2023-08-01T11:48:37;8.17;;;3.90;;
75441;SDS011;64019;48.312;14.226;2023-08-01T11:54:26;7.63;;;3.83;;
75441;SDS011;64019;48.312;14.226;2023-08-01T11:56:59;5.10;;;3.30;;
75441;SDS011;64019;48.312;14.226;2023-08-01T11:59:26;8.20;;;3.50;;
75441;SDS011;64019;48.312;14.226;2023-08-01T12:05:26;9.93;;;4.00;;
75441;SDS011;64019;48.312;14.226;2023-08-01T12:07:51;5.77;;;3.20;;
75441;SDS011;64019;48.312;14.226;2023-08-01T12:10:26;6.70;;;3.90;;
75441;SDS011;64019;48.312;14.226;2023-08-01T12:13:36;7.80;;;3.60;;
75441;SDS011;64019;48.312;14.226;2023-08-01T12:16:51;6.53;;;3.90;;
75441;SDS011;64019;48.312;14.226;2023-08-01T12:19:17;14.17;;;3.30;;
75441;SDS011;64019;48.312;14.226;2023-08-01T12:21:44;13.37;;;3.70;;
75441;SDS011;64019;48.312;14.226;2023-08-01T12:24:10;8.07;;;3.63;;
75441;SDS011;64019;48.312;14.226;2023-08-01T12:26:36;6.43;;;3.67;;
75441;SDS011;64019;48.312;14.226;2023-08-01T12:29:01;10.87;;;3.30;;
75441;SDS011;64019;48.312;14.226;2023-08-01T12:31:27;9.23;;;3.53;;
75441;SDS011;64019;48.312;14.226;2023-08-01T12:33:53;4.80;;;3.37;;
75441;SDS011;64019;48.312;14.226;2023-08-01T12:36:19;7.73;;;3.90;;
75441;SDS011;64019;48.312;14.226;2023-08-01T12:38:45;9.57;;;4.00;;
75441;SDS011;64019;48.312;14.226;2023-08-01T12:41:11;9.03;;;4.13;;
75441;SDS011;64019;48.312;14.226;2023-08-01T12:43:37;7.47;;;3.80;;
75441;SDS011;64019;48.312;14.226;2023-08-01T12:46:02;8.20;;;4.03;;
75441;SDS011;64019;48.312;14.226;2023-08-01T12:48:28;11.83;;;4.70;;
75441;SDS011;64019;48.312;14.226;2023-08-01T12:50:54;7.33;;;4.17;;
75441;SDS011;64019;48.312;14.226;2023-08-01T12:53:20;4.70;;;3.20;;
75441;SDS011;64019;48.312;14.226;2023-08-01T12:55:47;7.17;;;3.53;;
75441;SDS011;64019;48.312;14.226;2023-08-01T13:05:14;5.50;;;3.80;;
75441;SDS011;64019;48.312;14.226;2023-08-01T13:07:39;8.27;;;4.20;;
75441;SDS011;64019;48.312;14.226;2023-08-01T13:10:05;6.57;;;3.73;;
75441;SDS011;64019;48.312;14.226;2023-08-01T13:16:10;6.27;;;3.50;;
75441;SDS011;64019;48.312;14.226;2023-08-01T13:19:14;7.83;;;3.67;;
75441;SDS011;64019;48.312;14.226;2023-08-01T13:21:40;5.80;;;3.63;;
75441;SDS011;64019;48.312;14.226;2023-08-01T13:24:05;6.47;;;4.13;;
75441;SDS011;64019;48.312;14.226;2023-08-01T13:36:17;8.30;;;4.10;;
75441;SDS011;64019;48.312;14.226;2023-08-01T13:38:44;8.53;;;4.50;;
75441;SDS011;64019;48.312;14.226;2023-08-01T13:41:09;12.33;;;5.47;;
75441;SDS011;64019;48.312;14.226;2023-08-01T13:43:35;7.30;;;4.57;;
75441;SDS011;64019;48.312;14.226;2023-08-01T13:46:07;7.97;;;4.57;;
75441;SDS011;64019;48.312;14.226;2023-08-01T13:48:41;9.40;;;3.90;;
75441;SDS011;64019;48.312;14.226;2023-08-01T13:51:10;8.80;;;4.07;;
75441;SDS011;64019;48.312;14.226;2023-08-01T13:53:35;7.47;;;3.90;;
75441;SDS011;64019;48.312;14.226;2023-08-01T13:56:08;7.27;;;4.40;;
75441;SDS011;64019;48.312;14.226;2023-08-01T13:58:39;7.30;;;4.17;;
75441;SDS011;64019;48.312;14.226;2023-08-01T14:01:06;10.57;;;5.20;;
75441;SDS011;64019;48.312;14.226;2023-08-01T14:03:33;10.77;;;4.90;;
75441;SDS011;64019;48.312;14.226;2023-08-01T14:06:04;7.03;;;4.20;;
75441;SDS011;64019;48.312;14.226;2023-08-01T14:08:30;7.70;;;4.50;;
75441;SDS011;64019;48.312;14.226;2023-08-01T14:10:56;10.27;;;4.27;;
75441;SDS011;64019;48.312;14.226;2023-08-01T14:13:22;10.03;;;4.63;;
75441;SDS011;64019;48.312;14.226;2023-08-01T14:15:47;6.07;;;3.60;;
75441;SDS011;64019;48.312;14.226;2023-08-01T14:18:13;8.80;;;5.03;;
75441;SDS011;64019;48.312;14.226;2023-08-01T14:20:39;6.70;;;4.60;;
75441;SDS011;64019;48.312;14.226;2023-08-01T14:23:04;8.17;;;4.50;;
75441;SDS011;64019;48.312;14.226;2023-08-01T14:25:30;12.00;;;4.30;;
75441;SDS011;64019;48.312;14.226;2023-08-01T14:27:56;8.37;;;4.27;;
75441;SDS011;64019;48.312;14.226;2023-08-01T14:30:21;6.60;;;3.93;;
75441;SDS011;64019;48.312;14.226;2023-08-01T14:39:43;10.10;;;4.27;;
75441;SDS011;64019;48.312;14.226;2023-08-01T14:45:31;11.67;;;4.10;;
75441;SDS011;64019;48.312;14.226;2023-08-01T14:47:57;6.97;;;4.00;;
75441;SDS011;64019;48.312;14.226;2023-08-01T14:50:24;6.10;;;3.80;;
75441;SDS011;64019;48.312;14.226;2023-08-01T14:52:50;11.17;;;5.13;;
75441;SDS011;64019;48.312;14.226;2023-08-01T14:55:18;8.80;;;4.10;;
75441;SDS011;64019;48.312;14.226;2023-08-01T15:01:33;7.83;;;4.43;;
75441;SDS011;64019;48.312;14.226;2023-08-01T15:08:23;9.20;;;4.63;;
75441;SDS011;64019;48.312;14.226;2023-08-01T15:10:49;7.93;;;4.53;;
75441;SDS011;64019;48.312;14.226;2023-08-01T15:13:15;10.63;;;5.43;;
75441;SDS011;64019;48.312;14.226;2023-08-01T15:15:41;8.10;;;4.83;;
75441;SDS011;64019;48.312;14.226;2023-08-01T15:18:07;8.03;;;4.90;;
75441;SDS011;64019;48.312;14.226;2023-08-01T15:20:33;8.70;;;5.20;;
75441;SDS011;64019;48.312;14.226;2023-08-01T15:23:03;10.50;;;4.67;;
75441;SDS011;64019;48.312;14.226;2023-08-01T15:25:28;8.93;;;4.93;;
75441;SDS011;64019;48.312;14.226;2023-08-01T15:27:54;8.17;;;4.40;;
75441;SDS011;64019;48.312;14.226;2023-08-01T15:30:20;9.27;;;4.90;;
75441;SDS011;64019;48.312;14.226;2023-08-01T15:32:45;10.60;;;4.40;;
75441;SDS011;64019;48.312;14.226;2023-08-01T15:35:11;14.93;;;5.10;;
75441;SDS011;64019;48.312;14.226;2023-08-01T15:37:37;8.47;;;4.30;;
75441;SDS011;64019;48.312;14.226;2023-08-01T15:43:27;6.10;;;3.60;;
75441;SDS011;64019;48.312;14.226;2023-08-01T15:46:20;4.50;;;3.10;;
75441;SDS011;64019;48.312;14.226;2023-08-01T15:49:12;9.03;;;4.13;;
75441;SDS011;64019;48.312;14.226;2023-08-01T15:52:16;8.77;;;4.57;;
75441;SDS011;64019;48.312;14.226;2023-08-01T15:54:42;7.50;;;4.03;;
75441;SDS011;64019;48.312;14.226;2023-08-01T15:57:08;8.73;;;5.47;;
75441;SDS011;64019;48.312;14.226;2023-08-01T15:59:34;6.30;;;3.87;;
75441;SDS011;64019;48.312;14.226;2023-08-01T16:02:01;8.63;;;3.70;;
75441;SDS011;64019;48.312;14.226;2023-08-01T16:04:30;7.00;;;3.43;;
75441;SDS011;64019;48.312;14.226;2023-08-01T16:06:56;10.50;;;3.93;;
75441;SDS011;64019;48.312;14.226;2023-08-01T16:09:22;6.93;;;3.50;;
75441;SDS011;64019;48.312;14.226;2023-08-01T16:11:48;7.57;;;3.77;;